Time;durP1;ratioP1;P1;durP2;ratioP2;P2;SDS_P1;SDS_P2;PMS_P1;PMS_P2;Temp;Humidity;BMP_temperature;BMP_pressure;BME280_temperature;BME280_humidity;BME280_pressure;Samples;Min_cycle;Max_cycle;Signal;HPM_P1;HPM_P2
2022/05/30 00:01:02;;;;;;;15.08;5.97;;;;;;;11.13;100.00;100205.09;1744434;82;21197;-82
2022/05/30 00:04:09;;;;;;;16.57;6.55;;;;;;;11.11;100.00;100207.17;1744614;81;21759;-83
2022/05/30 00:07:15;;;;;;;15.20;7.05;;;;;;;11.09;100.00;100204.59;1744445;81;21184;-83
2022/05/30 00:10:22;;;;;;;17.00;7.17;;;;;;;11.06;100.00;100209.09;1754130;79;21196;-82
2022/05/30 00:13:28;;;;;;;17.20;6.92;;;;;;;11.05;100.00;100199.67;1773504;79;21217;-83
2022/05/30 00:16:34;;;;;;;11.75;5.85;;;;;;;10.98;100.00;100201.77;1774408;81;21145;-83
2022/05/30 00:19:39;;;;;;;11.30;6.00;;;;;;;10.94;100.00;100203.69;1774350;81;21770;-83
2022/05/30 00:22:47;;;;;;;15.48;6.42;;;;;;;10.90;100.00;100193.61;1757343;79;21228;-83
2022/05/30 00:25:54;;;;;;;18.17;6.65;;;;;;;10.86;100.00;100181.84;1773432;79;21192;-83
2022/05/30 00:29:00;;;;;;;15.80;7.28;;;;;;;10.82;100.00;100164.96;1773124;79;21192;-83
2022/05/30 00:32:05;;;;;;;10.70;6.45;;;;;;;10.81;100.00;100166.48;1774230;79;21481;-83
2022/05/30 00:35:12;;;;;;;12.03;6.20;;;;;;;10.80;100.00;100174.37;1773177;81;21734;-82
2022/05/30 00:38:18;;;;;;;18.52;7.17;;;;;;;10.79;100.00;100166.68;1773734;79;21726;-83
2022/05/30 00:41:26;;;;;;;13.62;6.80;;;;;;;10.79;100.00;100172.15;1773827;80;21165;-83
2022/05/30 00:44:33;;;;;;;16.07;7.03;;;;;;;10.77;100.00;100160.52;1774501;81;21162;-83
2022/05/30 00:47:36;;;;;;;16.07;7.15;;;;;;;10.75;100.00;100156.61;1774556;79;21192;-83
2022/05/30 00:50:28;;;;;;;17.57;7.67;;;;;;;10.73;100.00;100157.31;1774214;81;21177;-83
2022/05/30 00:53:34;;;;;;;18.65;7.53;;;;;;;10.72;100.00;100146.53;1773490;79;21228;-82
2022/05/30 00:56:47;;;;;;;18.95;7.97;;;;;;;10.72;100.00;100136.96;1773336;79;21185;-83
2022/05/30 00:59:52;;;;;;;18.32;8.10;;;;;;;10.71;100.00;100132.53;1774666;81;21138;-82
2022/05/30 01:09:37;;;;;;;15.43;8.15;;;;;;;10.68;100.00;100119.20;1774300;81;21750;-83
2022/05/30 01:12:49;;;;;;;20.85;8.28;;;;;;;10.67;100.00;100122.98;1750211;80;21170;-83
2022/05/30 01:15:55;;;;;;;19.30;8.25;;;;;;;10.66;100.00;100118.55;1745966;82;21237;-83
2022/05/30 01:19:02;;;;;;;15.78;7.97;;;;;;;10.64;100.00;100116.52;1745944;81;21727;-83
2022/05/30 01:22:38;;;;;;;18.48;8.18;;;;;;;10.62;100.00;100111.22;1745883;81;21174;-76
2022/05/30 01:26:07;;;;;;;22.50;9.15;;;;;;;10.59;100.00;100103.91;1744755;81;21189;-82
2022/05/30 01:29:22;;;;;;;19.35;8.38;;;;;;;10.56;100.00;100100.16;1744459;81;21204;-82
2022/05/30 01:32:29;;;;;;;21.60;8.45;;;;;;;10.53;100.00;100102.73;1745716;81;21193;-76
2022/05/30 01:35:35;;;;;;;21.05;8.83;;;;;;;10.49;100.00;100099.53;1744361;82;21205;-83
2022/05/30 01:38:39;;;;;;;17.12;8.28;;;;;;;10.49;100.00;100106.36;1744489;81;21626;-83
2022/05/30 01:41:48;;;;;;;17.67;7.67;;;;;;;10.49;100.00;100115.05;1743730;81;21773;-83
2022/05/30 01:44:54;;;;;;;18.82;8.95;;;;;;;10.48;100.00;100114.73;1745520;82;21166;-82
2022/05/30 01:48:00;;;;;;;22.67;8.30;;;;;;;10.50;100.00;100109.95;1745365;81;21746;-83
2022/05/30 01:51:06;;;;;;;21.37;9.15;;;;;;;10.51;100.00;100113.02;1745818;82;21145;-83
2022/05/30 01:54:12;;;;;;;22.22;9.38;;;;;;;10.50;100.00;100114.05;1744420;81;21205;-83
2022/05/30 01:57:21;;;;;;;16.10;8.35;;;;;;;10.52;100.00;100122.06;1743530;81;21177;-83
2022/05/30 02:00:30;;;;;;;18.98;8.75;;;;;;;10.53;100.00;100133.33;1744388;82;21157;-83
2022/05/30 02:03:30;;;;;;;19.75;9.15;;;;;;;10.57;100.00;100136.05;1745085;81;21235;-83
2022/05/30 02:06:27;;;;;;;22.70;9.15;;;;;;;10.63;100.00;100132.58;1746031;82;21668;-83
2022/05/30 02:09:30;;;;;;;21.52;10.88;;;;;;;10.71;100.00;100135.27;1746089;82;21193;-82
2022/05/30 02:12:36;;;;;;;20.85;9.30;;;;;;;10.80;100.00;100139.65;1728573;82;21192;-83
2022/05/30 02:19:13;;;;;;;22.98;10.15;;;;;;;11.09;100.00;100147.64;1746368;81;21201;-82
2022/05/30 02:22:22;;;;;;;23.62;10.38;;;;;;;11.30;100.00;100160.13;1747508;81;21193;-83
2022/05/30 02:25:44;;;;;;;24.82;10.38;;;;;;;11.49;100.00;100154.65;1747420;82;21141;-83
2022/05/30 02:28:51;;;;;;;23.12;10.60;;;;;;;11.74;100.00;100155.24;1746594;81;21181;-83
2022/05/30 02:31:58;;;;;;;21.90;10.48;;;;;;;11.97;100.00;100162.89;1747655;81;21197;-83
2022/05/30 02:38:28;;;;;;;24.55;11.03;;;;;;;12.51;99.81;100172.17;1746803;81;21224;-83
2022/05/30 02:41:51;;;;;;;30.05;11.40;;;;;;;12.75;97.20;100179.21;1747587;81;21244;-83
2022/05/30 02:44:59;;;;;;;27.45;12.50;;;;;;;13.01;95.39;100173.67;1747777;82;21715;-83
2022/05/30 02:48:05;;;;;;;23.22;10.15;;;;;;;13.22;93.31;100184.70;1747189;81;21759;-83
2022/05/30 02:51:05;;;;;;;24.50;11.22;;;;;;;13.39;91.79;100196.77;1747721;82;21703;-83
2022/05/30 02:54:11;;;;;;;29.20;11.75;;;;;;;13.59;90.30;100195.56;1746385;81;21224;-83
2022/05/30 02:57:34;;;;;;;26.62;11.88;;;;;;;13.71;88.44;100185.21;1747602;81;21181;-83
2022/05/30 03:00:40;;;;;;;29.18;12.63;;;;;;;13.79;87.44;100178.73;1748045;82;21161;-83
2022/05/30 03:03:46;;;;;;;24.63;11.63;;;;;;;13.92;86.50;100173.30;1746548;81;21189;-83
2022/05/30 03:06:52;;;;;;;24.63;11.63;;;;;;;14.01;85.74;100172.61;1746603;82;21220;-83
2022/05/30 03:09:58;;;;;;;29.25;11.65;;;;;;;14.10;85.27;100169.19;1746294;81;21166;-83
2022/05/30 03:13:12;;;;;;;29.45;12.05;;;;;;;14.18;84.89;100170.41;1752625;80;21165;-83
2022/05/30 03:16:19;;;;;;;28.50;12.10;;;;;;;14.25;84.42;100175.39;1772882;81;21256;-83
2022/05/30 03:19:25;;;;;;;26.23;11.22;;;;;;;14.37;84.16;100180.66;1774391;81;21169;-82
2022/05/30 03:22:31;;;;;;;35.30;12.10;;;;;;;14.53;83.79;100178.95;1737074;81;21201;-83
2022/05/30 03:25:39;;;;;;;34.33;12.78;;;;;;;14.70;83.27;100177.23;1774582;81;21161;-83
2022/05/30 03:28:44;;;;;;;31.02;12.68;;;;;;;14.84;82.39;100181.72;1774121;79;21192;-82
2022/05/30 03:31:50;;;;;;;25.68;11.95;;;;;;;14.96;81.65;100173.69;1774357;81;21173;-82
2022/05/30 03:34:57;;;;;;;30.70;11.78;;;;;;;15.06;80.97;100168.12;1774510;81;21719;-83
2022/05/30 03:38:05;;;;;;;39.78;11.70;;;;;;;15.16;80.80;100159.98;1736660;81;21229;-83
2022/05/30 03:41:21;;;;;;;37.65;12.65;;;;;;;15.26;80.49;100153.52;1704327;82;21296;-83
2022/05/30 03:44:29;;;;;;;28.40;12.53;;;;;;;15.33;79.75;100148.84;1737367;82;21189;-83
2022/05/30 03:47:34;;;;;;;26.60;13.28;;;;;;;15.31;79.77;100128.94;1736406;81;21185;-82
2022/05/30 03:50:40;;;;;;;27.87;12.07;;;;;;;15.33;79.82;100128.18;1737465;82;21146;-83
2022/05/30 03:53:45;;;;;;;32.63;13.00;;;;;;;15.35;79.93;100127.45;1736426;81;21837;-83
2022/05/30 03:56:51;;;;;;;25.12;12.65;;;;;;;15.35;79.46;100121.94;1737135;82;21194;-83
2022/05/30 03:59:57;;;;;;;26.85;12.68;;;;;;;15.33;79.86;100120.76;1737484;82;21138;-82
2022/05/30 04:03:07;;;;;;;27.58;13.62;;;;;;;15.36;80.50;100119.50;1737045;81;21491;-83
2022/05/30 04:06:13;;;;;;;26.73;12.88;;;;;;;15.44;79.39;100117.07;1737393;82;21201;-83
2022/05/30 04:09:21;;;;;;;31.57;13.85;;;;;;;15.40;79.79;100119.40;1737487;82;21185;-83
2022/05/30 04:12:44;;;;;;;24.18;12.18;;;;;;;15.33;80.43;100123.52;1736791;81;21205;-82
2022/05/30 04:16:17;;;;;;;32.10;13.95;;;;;;;15.38;80.26;100114.61;1699682;84;21201;-83
2022/05/30 04:19:25;;;;;;;29.23;13.18;;;;;;;15.54;80.33;100109.22;1747793;81;21161;-83
2022/05/30 04:22:30;;;;;;;28.92;13.10;;;;;;;15.66;79.45;100114.94;1747858;80;21221;-83
2022/05/30 04:25:56;;;;;;;31.42;13.95;;;;;;;15.79;78.78;100109.41;1747835;82;21711;-82
2022/05/30 04:29:05;;;;;;;31.00;13.32;;;;;;;15.94;77.95;100114.67;1747948;81;21185;-78
2022/05/30 04:32:28;;;;;;;29.40;13.08;;;;;;;15.99;77.79;100114.34;1735978;81;21248;-83
2022/05/30 04:35:35;;;;;;;30.35;13.98;;;;;;;16.11;77.73;100121.43;1747524;81;21188;-83
2022/05/30 04:38:40;;;;;;;27.65;13.22;;;;;;;16.26;76.75;100121.16;1745970;81;21169;-77
2022/05/30 04:41:53;;;;;;;27.15;12.58;;;;;;;16.35;75.98;100123.45;1718787;81;21783;-77
2022/05/30 04:45:17;;;;;;;28.57;14.20;;;;;;;16.50;75.34;100130.08;1747570;82;21703;-77
2022/05/30 04:48:28;;;;;;;30.62;12.80;;;;;;;16.61;74.66;100136.31;1783863;79;21220;-77
2022/05/30 04:51:35;;;;;;;26.02;11.55;;;;;;;16.76;74.55;100132.44;1784563;80;21153;-77
2022/05/30 04:54:40;;;;;;;27.65;12.80;;;;;;;16.89;74.42;100138.40;1772117;78;21735;-78
2022/05/30 04:58:00;;;;;;;24.80;12.07;;;;;;;17.06;74.04;100147.33;1789417;78;21189;-77
2022/05/30 05:01:16;;;;;;;28.42;12.60;;;;;;;17.31;72.25;100146.51;1756727;81;22470;-77
2022/05/30 05:04:23;;;;;;;30.52;12.37;;;;;;;17.43;71.64;100137.81;1743888;82;21184;-77
2022/05/30 05:07:29;;;;;;;24.60;11.60;;;;;;;17.55;71.37;100139.29;1775744;79;21125;-77
2022/05/30 05:10:50;;;;;;;31.10;11.95;;;;;;;17.73;71.62;100139.88;1754527;80;21129;-77
2022/05/30 05:14:07;;;;;;;30.70;12.65;;;;;;;17.93;70.66;100136.44;1776863;80;21223;-77
2022/05/30 05:17:25;;;;;;;31.00;13.00;;;;;;;18.09;70.18;100137.20;1759803;81;21204;-77
2022/05/30 05:20:29;;;;;;;23.55;11.85;;;;;;;18.18;70.65;100136.37;1749923;81;21149;-77
2022/05/30 05:23:38;;;;;;;29.55;12.33;;;;;;;18.43;70.64;100137.66;1747778;82;21220;-77
2022/05/30 05:26:52;;;;;;;30.25;11.93;;;;;;;18.65;67.57;100134.72;1753135;80;21152;-77
2022/05/30 05:30:01;;;;;;;26.35;11.88;;;;;;;18.78;66.55;100132.89;1745634;80;21196;-78
2022/05/30 05:33:07;;;;;;;28.07;11.73;;;;;;;18.98;66.72;100133.44;1755938;80;21219;-77
2022/05/30 05:36:12;;;;;;;24.75;11.40;;;;;;;19.13;65.50;100137.16;1751581;80;21188;-77
2022/05/30 05:39:18;;;;;;;25.50;10.72;;;;;;;19.29;65.23;100124.53;1746404;81;21714;-77
2022/05/30 05:42:26;;;;;;;21.77;10.18;;;;;;;19.50;65.29;100130.91;1750504;80;21741;-77
2022/05/30 05:45:31;;;;;;;16.95;8.85;;;;;;;19.65;62.51;100128.53;1743279;80;21164;-77
2022/05/30 05:48:38;;;;;;;18.48;10.43;;;;;;;19.78;62.76;100134.40;1721809;82;21215;-77
2022/05/30 05:51:43;;;;;;;22.48;10.78;;;;;;;19.89;61.48;100129.92;1745639;80;21208;-77
2022/05/30 05:54:42;;;;;;;21.60;10.28;;;;;;;20.03;62.58;100134.14;1754899;80;21125;-78
2022/05/30 05:57:47;;;;;;;23.62;11.10;;;;;;;20.14;61.22;100131.08;1757561;81;21222;-84
2022/05/30 06:00:54;;;;;;;23.55;10.18;;;;;;;20.21;60.83;100121.21;1745034;80;21236;-83
2022/05/30 06:04:06;;;;;;;45.15;11.28;;;;;;;20.30;60.42;100117.81;1758838;80;21189;-84
2022/05/30 06:07:30;;;;;;;23.12;9.55;;;;;;;20.38;60.94;100117.44;1724720;81;21776;-83
2022/05/30 06:11:05;;;;;;;;;;;;;;;20.52;59.31;100114.42;1769218;81;21156;-82
2022/05/30 06:13:52;;;;;;;24.00;9.15;;;;;;;20.65;59.46;100117.76;1746293;82;20184;-83
2022/05/30 06:16:57;;;;;;;19.15;9.78;;;;;;;20.76;57.62;100115.17;1760157;79;21192;-82
2022/05/30 06:20:03;;;;;;;16.20;8.40;;;;;;;20.91;58.48;100112.13;1741396;82;21759;-82
2022/05/30 06:23:01;;;;;;;17.92;8.03;;;;;;;21.09;57.62;100115.80;1747423;82;21137;-83
2022/05/30 06:26:16;;;;;;;17.87;7.85;;;;;;;21.29;57.14;100114.77;1648755;86;21178;-83
2022/05/30 06:29:24;;;;;;;16.02;7.58;;;;;;;21.41;54.24;100114.73;1657332;86;21770;-82
2022/05/30 06:32:32;;;;;;;16.35;7.40;;;;;;;21.42;53.05;100110.85;1733718;82;21244;-83
2022/05/30 06:35:39;;;;;;;13.70;7.42;;;;;;;21.43;53.15;100113.38;1750828;81;21707;-82
2022/05/30 06:38:46;;;;;;;16.95;6.78;;;;;;;21.55;54.20;100116.09;1742417;80;21180;-83
2022/05/30 06:41:56;;;;;;;12.93;6.53;;;;;;;21.74;53.10;100115.27;1733054;81;21153;-83
2022/05/30 06:45:19;;;;;;;18.32;7.42;;;;;;;21.97;53.12;100102.22;1735463;81;21154;-83
2022/05/30 06:48:43;;;;;;;15.68;7.17;;;;;;;22.11;51.18;100108.62;1733603;81;21173;-84
2022/05/30 06:52:00;;;;;;;17.82;6.97;;;;;;;22.15;51.52;100106.98;1740263;81;21159;-83
2022/05/30 06:55:08;;;;;;;17.32;7.65;;;;;;;22.23;51.55;100111.27;1745495;79;21193;-84
2022/05/30 06:58:13;;;;;;;18.67;6.05;;;;;;;22.38;51.07;100112.02;1738448;82;21150;-84
2022/05/30 07:01:18;;;;;;;12.20;5.42;;;;;;;22.55;50.77;100116.98;1728220;82;21205;-84
2022/05/30 07:04:41;;;;;;;17.40;6.10;;;;;;;22.69;49.59;100116.88;1749089;80;21169;-85
2022/05/30 07:08:04;;;;;;;12.47;4.47;;;;;;;22.79;48.88;100119.50;1749017;81;21165;-84
2022/05/30 07:11:10;;;;;;;12.00;5.10;;;;;;;22.89;47.39;100127.45;1699856;81;21140;-84
2022/05/30 07:14:18;;;;;;;10.95;5.15;;;;;;;23.02;49.01;100123.97;1746925;82;21224;-84
2022/05/30 07:17:25;;;;;;;14.60;5.15;;;;;;;23.18;47.75;100124.39;1747570;82;21200;-84
2022/05/30 07:20:31;;;;;;;16.85;4.33;;;;;;;23.28;46.80;100121.70;1734836;80;21165;-84
2022/05/30 07:23:48;;;;;;;12.37;4.60;;;;;;;23.37;46.33;100123.45;1742949;81;21500;-84
2022/05/30 07:26:55;;;;;;;9.85;3.98;;;;;;;23.39;46.20;100125.45;1738921;81;21842;-84
2022/05/30 07:30:19;;;;;;;10.03;4.45;;;;;;;23.45;44.03;100122.42;1727192;82;21157;-78
2022/05/30 07:33:43;;;;;;;8.40;4.72;;;;;;;23.50;45.22;100120.78;1738509;80;21725;-84
2022/05/30 07:37:02;;;;;;;10.38;4.58;;;;;;;23.51;44.67;100116.32;1744843;82;21244;-84
2022/05/30 07:40:21;;;;;;;7.72;3.85;;;;;;;23.62;45.00;100118.11;1734638;82;21173;-84
2022/05/30 07:43:45;;;;;;;8.85;3.62;;;;;;;23.73;43.94;100112.07;1739156;82;21190;-84
2022/05/30 07:46:52;;;;;;;10.05;3.95;;;;;;;23.90;43.58;100109.09;1736520;81;21173;-79
2022/05/30 07:50:04;;;;;;;16.75;4.30;;;;;;;23.97;42.76;100111.95;1708909;82;21169;-78
2022/05/30 07:53:20;;;;;;;10.15;3.85;;;;;;;24.02;43.34;100110.30;1742749;82;21185;-79
2022/05/30 07:56:31;;;;;;;9.75;3.87;;;;;;;24.14;43.24;100107.59;1739908;82;21201;-76
2022/05/30 07:59:36;;;;;;;8.93;4.25;;;;;;;24.22;42.74;100100.08;1742328;82;21185;-76
2022/05/30 08:02:43;;;;;;;8.58;4.00;;;;;;;24.36;42.37;100096.79;1744933;81;21708;-82
2022/05/30 08:05:50;;;;;;;11.40;4.42;;;;;;;24.50;43.61;100103.59;1744561;82;21778;-83
2022/05/30 08:09:15;;;;;;;10.90;4.83;;;;;;;24.60;41.94;100107.82;1743815;82;21260;-77
2022/05/30 08:12:32;;;;;;;10.85;4.00;;;;;;;24.70;42.76;100106.48;1715183;82;22081;-78
2022/05/30 08:15:46;;;;;;;12.47;4.95;;;;;;;24.76;41.92;100092.52;1739766;81;21152;-78
2022/05/30 08:18:56;;;;;;;9.93;4.08;;;;;;;24.81;42.16;100085.53;1722554;82;21181;-77
2022/05/30 08:22:12;;;;;;;8.73;4.70;;;;;;;24.88;41.81;100084.13;1736409;82;21882;-77
2022/05/30 08:25:20;;;;;;;11.53;4.72;;;;;;;24.94;42.30;100086.41;1735091;82;21229;-77
2022/05/30 08:28:26;;;;;;;15.13;5.00;;;;;;;25.10;42.26;100091.49;1730614;81;21225;-77
2022/05/30 08:31:34;;;;;;;10.10;4.87;;;;;;;25.20;41.29;100101.30;1725246;82;21174;-77
2022/05/30 08:35:03;;;;;;;15.28;4.42;;;;;;;25.14;41.68;100099.05;1725093;82;21806;-78
2022/05/30 08:38:09;;;;;;;8.10;4.12;;;;;;;25.16;41.34;100112.20;1731184;82;21209;-77
2022/05/30 08:44:47;;;;;;;9.48;4.65;;;;;;;25.40;42.51;100114.45;1687778;82;21222;-84
2022/05/30 08:48:06;;;;;;;13.65;4.35;;;;;;;25.60;41.93;100107.48;1721893;82;21177;-77
2022/05/30 08:51:31;;;;;;;11.10;5.40;;;;;;;25.72;40.99;100105.78;1732471;82;21175;-77
2022/05/30 08:55:28;;;;;;;8.78;4.25;;;;;;;25.71;40.50;100093.73;1729054;82;21264;-77
2022/05/30 08:59:15;;;;;;;9.53;4.35;;;;;;;25.62;39.67;100078.63;1736514;82;21549;-78
2022/05/30 09:02:42;;;;;;;17.52;4.67;;;;;;;25.57;41.59;100073.59;1728889;82;21208;-78
2022/05/30 09:05:57;;;;;;;8.55;4.05;;;;;;;25.56;40.49;100078.36;1720651;82;21394;-78
2022/05/30 09:09:03;;;;;;;8.33;4.08;;;;;;;25.59;40.38;100066.57;1731994;82;21253;-78
2022/05/30 09:12:31;;;;;;;7.53;3.87;;;;;;;25.65;39.77;100066.87;1712569;82;21280;-78
2022/05/30 09:16:14;;;;;;;12.40;3.70;;;;;;;25.63;39.77;100048.09;1704279;82;21205;-78
2022/05/30 09:19:24;;;;;;;11.05;3.40;;;;;;;25.66;39.93;100058.73;1728973;82;21289;-78
2022/05/30 09:22:30;;;;;;;8.43;3.12;;;;;;;25.70;38.79;100051.45;1726343;81;21196;-78
2022/05/30 09:26:03;;;;;;;9.95;3.58;;;;;;;25.62;39.61;100047.81;1745145;82;21220;-78
2022/05/30 09:29:19;;;;;;;8.20;3.42;;;;;;;25.54;39.92;100034.94;1736346;82;21527;-78
2022/05/30 09:33:14;;;;;;;6.03;2.80;;;;;;;25.49;39.48;100032.98;1646223;86;21922;-78
2022/05/30 09:36:33;;;;;;;8.90;3.00;;;;;;;25.54;39.02;100028.78;1717099;81;21177;-78
2022/05/30 09:39:56;;;;;;;14.40;2.98;;;;;;;25.57;39.02;100026.83;1740177;82;21161;-78
2022/05/30 09:43:06;;;;;;;10.72;2.95;;;;;;;25.60;38.83;100030.47;1721906;81;21225;-78
2022/05/30 09:46:40;;;;;;;9.20;3.00;;;;;;;25.59;38.05;100028.77;1742658;81;21785;-78
2022/05/30 09:50:03;;;;;;;6.30;3.05;;;;;;;25.65;38.71;100052.03;1726147;82;21617;-78
2022/05/30 09:53:08;;;;;;;8.13;2.58;;;;;;;25.80;39.03;100037.19;1738858;82;21705;-78
2022/05/30 09:56:14;;;;;;;8.05;3.20;;;;;;;25.92;38.66;100030.13;1740557;82;21181;-78
2022/05/30 09:59:42;;;;;;;11.57;3.08;;;;;;;25.96;38.38;100034.04;1728311;82;21169;-78
2022/05/30 10:02:49;;;;;;;9.10;2.87;;;;;;;25.99;38.59;100032.08;1738468;82;21694;-78
2022/05/30 10:05:55;;;;;;;9.15;2.80;;;;;;;26.12;37.92;100036.25;1747665;82;21182;-76
2022/05/30 10:09:26;;;;;;;9.80;2.58;;;;;;;26.19;37.88;100045.17;1718912;82;21411;-77
2022/05/30 10:12:44;;;;;;;6.67;2.30;;;;;;;26.31;38.01;100045.42;1739511;81;21240;-77
2022/05/30 10:15:52;;;;;;;13.03;2.90;;;;;;;26.34;37.47;100048.47;1740901;82;21204;-77
2022/05/30 10:19:03;;;;;;;4.40;2.20;;;;;;;26.45;36.82;100040.91;1717678;82;21176;-77
2022/05/30 10:30:00;;;;;;;5.03;2.30;;;;;;;26.58;36.23;100029.59;1746577;82;21220;-83
2022/05/30 10:33:37;;;;;;;5.22;2.10;;;;;;;26.72;36.55;100024.48;1729313;82;21200;-84
2022/05/30 10:37:10;;;;;;;7.92;2.67;;;;;;;26.72;36.55;100024.48;1742747;80;21178;-83
2022/05/30 10:40:47;;;;;;;10.43;2.30;;;;;;;26.93;36.10;100024.34;1743322;82;21530;-84
2022/05/30 10:44:20;;;;;;;10.32;2.33;;;;;;;27.07;35.75;100018.91;1615489;86;21778;-84
2022/05/30 10:47:39;;;;;;;7.28;2.50;;;;;;;27.18;36.15;100005.91;1625637;86;21587;-84
2022/05/30 10:50:53;;;;;;;6.37;2.00;;;;;;;27.18;36.15;100005.91;1774875;80;21206;-84
2022/05/30 10:54:26;;;;;;;4.33;2.15;;;;;;;27.36;36.30;100006.33;1769675;79;21157;-83
2022/05/30 10:57:58;;;;;;;5.40;2.20;;;;;;;27.47;36.17;100009.30;1785321;79;21170;-84
2022/05/30 11:01:14;;;;;;;6.37;1.92;;;;;;;27.76;36.31;100007.36;1765668;79;21157;-77
2022/05/30 11:04:28;;;;;;;5.62;2.25;;;;;;;27.88;35.71;100004.70;1763793;79;21547;-77
2022/05/30 11:07:54;;;;;;;9.28;2.65;;;;;;;27.88;35.71;100004.70;1759832;79;21203;-77
2022/05/30 11:11:20;;;;;;;7.53;2.00;;;;;;;27.97;35.86;100007.95;1774614;79;21146;-78
2022/05/30 11:14:58;;;;;;;4.42;2.22;;;;;;;28.08;36.51;100003.03;1747108;79;21161;-78
2022/05/30 11:18:45;;;;;;;2.95;1.98;;;;;;;28.25;35.82;100010.98;1729678;82;21196;-78
2022/05/30 11:22:14;;;;;;;7.37;2.17;;;;;;;28.31;35.01;100006.13;1737141;80;21251;-78
2022/05/30 11:25:25;;;;;;;7.62;2.17;;;;;;;28.18;34.40;100008.56;1710390;82;21155;-78
2022/05/30 11:28:51;;;;;;;8.20;2.90;;;;;;;28.08;35.07;100006.42;1725769;82;21165;-84
2022/05/30 11:32:10;;;;;;;13.28;2.98;;;;;;;28.13;35.53;100005.78;1725031;82;21276;-82
2022/05/30 11:35:37;;;;;;;8.63;2.98;;;;;;;28.19;35.93;100004.60;1709277;82;21831;-78
2022/05/30 11:39:15;;;;;;;6.00;2.83;;;;;;;28.20;34.33;99997.84;1722602;82;21173;-79
2022/05/30 11:42:43;;;;;;;6.78;2.47;;;;;;;28.21;34.53;99997.27;1725375;82;21657;-78
2022/05/30 11:46:04;;;;;;;11.12;2.77;;;;;;;28.14;35.70;99989.78;1731408;82;21213;-77
2022/05/30 11:49:34;;;;;;;9.38;4.80;;;;;;;28.12;35.20;99995.68;1733170;82;21173;-77
2022/05/30 11:53:04;;;;;;;17.52;3.50;;;;;;;28.04;35.06;99996.34;1729818;81;21224;-78
2022/05/30 11:56:36;;;;;;;13.28;3.12;;;;;;;27.93;35.74;99987.77;1728226;82;21206;-78
2022/05/30 12:00:16;;;;;;;10.43;3.20;;;;;;;27.93;36.26;99980.75;1716400;82;21136;-78
2022/05/30 12:03:33;;;;;;;6.03;2.67;;;;;;;27.97;35.96;99975.63;1718594;82;21220;-78
2022/05/30 12:07:09;;;;;;;8.00;2.50;;;;;;;27.99;35.51;99983.75;1736051;82;21193;-77
2022/05/30 12:10:34;;;;;;;10.58;2.80;;;;;;;27.97;35.38;99991.66;1724324;82;21145;-78
2022/05/30 12:14:09;;;;;;;3.92;2.15;;;;;;;27.94;35.59;99981.01;1714952;82;21211;-77
2022/05/30 12:23:47;;;;;;;10.23;2.47;;;;;;;27.98;35.96;99987.70;1721944;82;21185;-78
2022/05/30 12:24:31;;;;;;;10.28;2.60;;;;;;;27.75;35.68;99997.23;1692113;83;21766;-77
2022/05/30 12:27:43;;;;;;;5.45;2.85;;;;;;;27.78;35.78;99994.98;1741856;80;21741;-78
2022/05/30 12:30:44;;;;;;;8.30;2.17;;;;;;;27.82;35.64;99995.49;1722252;82;21144;-77
2022/05/30 12:33:56;;;;;;;6.60;2.40;;;;;;;27.84;36.54;99994.61;1710375;82;21227;-77
2022/05/30 12:37:04;;;;;;;10.15;2.75;;;;;;;27.91;37.25;99999.32;1735281;82;21853;-77
2022/05/30 12:40:06;;;;;;;5.75;2.72;;;;;;;27.96;37.95;100000.66;1754835;80;21141;-78
2022/05/30 12:43:43;;;;;;;8.93;2.80;;;;;;;28.02;37.17;99999.45;1748908;81;21204;-83
2022/05/30 12:47:01;;;;;;;10.25;3.80;;;;;;;28.02;37.95;100000.03;1747351;80;21231;-83
2022/05/30 12:50:25;;;;;;;6.90;2.62;;;;;;;27.98;37.20;99989.11;1754487;80;21157;-83
2022/05/30 12:53:35;;;;;;;9.73;2.92;;;;;;;28.00;36.63;99985.45;1716068;82;21280;-83
2022/05/30 12:56:49;;;;;;;;;;;;;;;27.97;35.98;99986.88;1732191;82;21757;-83
2022/05/30 13:00:14;;;;;;;7.55;2.70;;;;;;;27.85;36.34;99989.83;1724405;81;20232;-83
2022/05/30 13:03:39;;;;;;;7.08;2.30;;;;;;;27.75;37.32;99990.78;1734498;82;21232;-83
2022/05/30 13:07:05;;;;;;;4.47;1.92;;;;;;;27.70;38.08;99982.38;1691385;85;21193;-83
2022/05/30 13:10:13;;;;;;;5.85;2.67;;;;;;;27.64;38.19;99977.39;1729454;82;21731;-83
2022/05/30 13:13:23;;;;;;;5.17;2.67;;;;;;;27.59;37.60;99963.41;1734052;81;21208;-83
2022/05/30 13:16:48;;;;;;;8.78;2.52;;;;;;;27.48;39.06;99961.28;1747857;82;21247;-82
2022/05/30 13:20:07;;;;;;;13.32;2.77;;;;;;;27.46;40.09;99962.13;1716827;83;21829;-83
2022/05/30 13:23:15;;;;;;;6.12;2.50;;;;;;;27.48;39.53;99953.42;1723565;81;21205;-82
2022/05/30 13:26:22;;;;;;;13.43;2.85;;;;;;;27.58;39.41;99946.28;1774121;80;21787;-83
2022/05/30 13:29:27;;;;;;;3.45;1.72;;;;;;;27.79;37.45;99939.05;1772281;80;21154;-83
2022/05/30 13:32:33;;;;;;;8.68;2.75;;;;;;;27.79;37.45;99939.05;1784168;80;21245;-82
2022/05/30 13:35:38;;;;;;;7.35;2.62;;;;;;;27.84;36.21;99938.41;1737355;82;21206;-82
2022/05/30 13:38:48;;;;;;;6.08;2.58;;;;;;;27.79;37.05;99930.05;1737065;82;21751;-81
2022/05/30 13:41:56;;;;;;;7.33;2.27;;;;;;;27.79;37.05;99930.05;1737038;82;21719;-83
2022/05/30 13:45:03;;;;;;;4.65;2.00;;;;;;;27.77;36.81;99921.09;1736511;82;21198;-83
2022/05/30 13:48:12;;;;;;;3.98;2.08;;;;;;;27.76;38.10;99925.87;1745015;80;21204;-83
2022/05/30 13:51:18;;;;;;;3.10;2.10;;;;;;;27.78;37.67;99920.52;1764611;81;21711;-82
2022/05/30 13:54:25;;;;;;;3.47;1.87;;;;;;;27.73;37.73;99911.02;1765334;80;21504;-82
2022/05/30 13:57:30;;;;;;;6.55;2.10;;;;;;;27.75;38.48;99903.11;1753798;80;21189;-83
2022/05/30 14:00:40;;;;;;;9.25;2.67;;;;;;;27.82;37.58;99900.52;1787220;80;21169;-83
2022/05/30 14:03:47;;;;;;;4.12;2.50;;;;;;;27.81;38.21;99898.83;1770374;80;21264;-82
2022/05/30 14:06:53;;;;;;;7.60;2.62;;;;;;;27.68;36.92;99886.33;1784004;80;21197;-77
2022/05/30 14:10:00;;;;;;;13.38;2.98;;;;;;;27.68;36.92;99886.33;1786848;80;21759;-77
2022/05/30 14:21:14;;;;;;;8.38;2.90;;;;;;;27.41;39.52;99884.95;1857242;76;22245;-76
2022/05/30 14:24:32;;;;;;;8.15;3.50;;;;;;;27.41;39.52;99884.95;1720893;83;21179;-76
2022/05/30 14:27:41;;;;;;;5.87;2.98;;;;;;;27.37;39.65;99887.25;1736563;82;21743;-82
2022/05/30 14:30:48;;;;;;;4.40;2.72;;;;;;;27.35;39.65;99879.70;1748644;82;21236;-78
2022/05/30 14:34:25;;;;;;;9.28;3.15;;;;;;;27.35;39.65;99879.70;1748593;82;21224;-76
2022/05/30 14:37:37;;;;;;;5.28;3.33;;;;;;;27.31;39.63;99873.84;1748892;82;21244;-76
2022/05/30 14:40:48;;;;;;;6.12;3.05;;;;;;;27.29;39.36;99881.73;1748015;82;21781;-76
2022/05/30 14:44:00;;;;;;;7.42;2.85;;;;;;;27.22;39.34;99880.67;1747722;82;21212;-76
2022/05/30 14:47:09;;;;;;;10.35;3.52;;;;;;;27.16;39.78;99881.87;1741610;82;21692;-76
2022/05/30 14:50:19;;;;;;;8.35;3.58;;;;;;;27.11;40.69;99879.69;1718887;83;21222;-76
2022/05/30 14:53:27;;;;;;;7.33;3.15;;;;;;;27.01;41.01;99888.44;1730436;82;21174;-76
2022/05/30 14:56:33;;;;;;;9.10;3.77;;;;;;;26.90;41.32;99888.81;1719061;83;21206;-76
2022/05/30 14:59:47;;;;;;;8.68;3.40;;;;;;;26.76;41.42;99885.28;1731672;82;21184;-76
2022/05/30 15:06:16;;;;;;;7.83;3.42;;;;;;;26.63;42.17;99877.57;1735895;81;21787;-76
2022/05/30 15:09:25;;;;;;;15.08;3.77;;;;;;;26.59;42.18;99863.02;1736269;82;21212;-76
2022/05/30 15:12:31;;;;;;;7.47;3.52;;;;;;;26.60;42.48;99869.73;1735923;82;21244;-76
2022/05/30 15:15:37;;;;;;;9.53;3.42;;;;;;;26.58;43.50;99869.17;1735274;82;21236;-76
2022/05/30 15:18:42;;;;;;;8.15;3.72;;;;;;;26.51;44.07;99864.47;1735184;82;21184;-76
2022/05/30 15:21:56;;;;;;;7.17;3.40;;;;;;;26.43;43.41;99866.48;1745122;82;21185;-76
2022/05/30 15:25:04;;;;;;;6.80;3.30;;;;;;;26.32;43.01;99874.12;1749251;82;21161;-76
2022/05/30 15:28:09;;;;;;;10.80;3.45;;;;;;;26.23;43.29;99876.70;1749501;82;21201;-76
2022/05/30 15:31:15;;;;;;;5.47;3.40;;;;;;;26.20;43.32;99870.83;1749518;82;21149;-76